createdAt,value
2019-05-17T00:00:47.474Z,10.20
2019-05-17T00:03:17.588Z,10.20
2019-05-17T00:05:46.877Z,10.20
2019-05-17T00:08:20.447Z,10.20
2019-05-17T00:10:47.268Z,10.10
2019-05-17T00:13:17.386Z,10.10
2019-05-17T00:15:47.414Z,10.00
2019-05-17T00:18:17.226Z,9.90
2019-05-17T00:20:47.024Z,9.90
2019-05-17T00:23:17.356Z,9.90
2019-05-17T00:25:47.071Z,9.90
2019-05-17T00:28:16.552Z,9.90
2019-05-17T00:30:46.619Z,9.90
2019-05-17T00:33:16.947Z,9.80
2019-05-17T00:35:47.063Z,9.80
2019-05-17T00:38:16.877Z,9.80
2019-05-17T00:40:47.153Z,9.80
2019-05-17T00:43:17.055Z,9.80
2019-05-17T00:45:46.841Z,9.70
2019-05-17T00:48:17.178Z,9.80
2019-05-17T00:50:53.217Z,9.80
2019-05-17T00:53:17.791Z,9.80
2019-05-17T00:55:47.153Z,9.80
2019-05-17T00:58:17.429Z,9.80
2019-05-17T01:00:47.893Z,9.70
2019-05-17T01:03:17.488Z,9.80
2019-05-17T01:05:47.348Z,9.70
2019-05-17T01:08:17.424Z,9.70
2019-05-17T01:10:47.497Z,9.80
2019-05-17T01:13:17.423Z,9.80
2019-05-17T01:15:47.421Z,9.70
2019-05-17T01:18:16.933Z,9.70
2019-05-17T01:20:47.466Z,9.70
2019-05-17T01:23:17.137Z,9.70
2019-05-17T01:25:48.116Z,9.70
2019-05-17T01:28:17.705Z,9.70
2019-05-17T01:30:47.877Z,9.70
2019-05-17T01:33:17.358Z,9.70
2019-05-17T01:35:47.116Z,9.70
2019-05-17T01:38:17.768Z,9.60
2019-05-17T01:40:47.249Z,9.60
2019-05-17T01:43:16.764Z,9.60
2019-05-17T01:45:48.014Z,9.50
2019-05-17T01:48:17.146Z,9.50
2019-05-17T01:50:46.585Z,9.50
2019-05-17T01:53:16.642Z,9.50
2019-05-17T01:55:46.572Z,9.60
2019-05-17T01:58:16.448Z,9.60
2019-05-17T02:00:46.528Z,9.60
2019-05-17T02:03:17.336Z,9.50
2019-05-17T02:05:49.764Z,9.50
2019-05-17T02:08:19.111Z,9.60
2019-05-17T02:10:48.401Z,9.60
2019-05-17T02:13:17.716Z,9.60
2019-05-17T02:15:47.370Z,9.60
2019-05-17T02:18:17.372Z,9.50
2019-05-17T02:20:46.930Z,9.50
2019-05-17T02:23:17.377Z,9.50
2019-05-17T02:25:47.282Z,9.50
2019-05-17T02:28:16.671Z,9.40
2019-05-17T02:30:46.097Z,9.50
2019-05-17T02:33:15.504Z,9.40
2019-05-17T02:35:45.239Z,9.50
2019-05-17T02:38:14.621Z,9.50
2019-05-17T02:40:43.917Z,9.50
2019-05-17T02:43:13.442Z,9.50
2019-05-17T02:45:43.648Z,9.50
2019-05-17T02:48:13.581Z,9.50
2019-05-17T02:50:47.399Z,9.60
2019-05-17T02:53:14.877Z,9.60
2019-05-17T02:55:44.214Z,9.50
2019-05-17T02:58:13.601Z,9.50
2019-05-17T03:00:44.235Z,9.50
2019-05-17T03:03:13.894Z,9.50
2019-05-17T03:05:43.360Z,9.60
2019-05-17T03:08:12.707Z,9.50
2019-05-17T03:10:43.317Z,9.60
2019-05-17T03:13:17.036Z,9.50
2019-05-17T03:15:43.829Z,9.60
2019-05-17T03:18:13.530Z,9.60
2019-05-17T03:20:43.324Z,9.60
2019-05-17T03:23:12.878Z,9.60
2019-05-17T03:25:43.936Z,9.50
2019-05-17T03:28:13.626Z,9.60
2019-05-17T03:30:47.018Z,9.60
2019-05-17T03:33:16.748Z,9.60
2019-05-17T03:35:46.548Z,9.60
2019-05-17T03:38:16.065Z,9.60
2019-05-17T03:41:07.312Z,9.60
2019-05-17T03:43:16.493Z,9.60
2019-05-17T03:45:45.850Z,9.60
2019-05-17T03:48:15.453Z,9.70
2019-05-17T03:50:44.829Z,9.60
2019-05-17T03:53:14.168Z,9.50
2019-05-17T03:55:43.584Z,9.50
2019-05-17T03:58:13.002Z,9.60
2019-05-17T04:00:42.977Z,9.70
2019-05-17T04:03:13.604Z,9.60
2019-05-17T04:05:43.214Z,9.50
2019-05-17T04:08:13.937Z,9.50
2019-05-17T04:10:43.598Z,9.50
2019-05-17T04:13:13.149Z,9.50
2019-05-17T04:15:43.311Z,9.40
2019-05-17T04:18:13.451Z,9.40
2019-05-17T04:20:43.566Z,9.40
2019-05-17T04:23:13.150Z,9.30
2019-05-17T04:25:43.504Z,9.30
2019-05-17T04:28:13.854Z,9.20
2019-05-17T04:30:43.619Z,9.30
2019-05-17T04:33:13.496Z,9.30
2019-05-17T04:35:43.318Z,9.20
2019-05-17T04:38:12.950Z,9.10
2019-05-17T04:40:43.139Z,9.10
2019-05-17T04:43:13.577Z,9.20
2019-05-17T04:45:43.625Z,9.20
2019-05-17T04:48:13.418Z,9.20
2019-05-17T04:50:43.090Z,9.20
2019-05-17T04:53:13.239Z,9.30
2019-05-17T04:55:43.318Z,9.20
2019-05-17T04:58:13.756Z,9.30
2019-05-17T05:00:43.733Z,9.30
2019-05-17T05:03:13.055Z,9.30
2019-05-17T05:05:42.912Z,9.30
2019-05-17T05:08:14.545Z,9.30
2019-05-17T05:10:43.908Z,9.30
2019-05-17T05:13:13.488Z,9.30
2019-05-17T05:15:44.728Z,9.20
2019-05-17T05:18:14.241Z,9.20
2019-05-17T05:20:44.032Z,9.20
2019-05-17T05:23:13.922Z,9.20
2019-05-17T05:25:43.461Z,9.20
2019-05-17T05:28:12.886Z,9.20
2019-05-17T05:30:42.485Z,9.20
2019-05-17T05:33:12.930Z,9.20
2019-05-17T05:35:42.845Z,9.20
2019-05-17T05:38:13.440Z,9.30
2019-05-17T05:40:43.491Z,9.30
2019-05-17T05:43:12.795Z,9.20
2019-05-17T05:45:42.124Z,9.20
2019-05-17T05:48:12.840Z,9.30
2019-05-17T05:50:43.348Z,9.20
2019-05-17T05:53:13.308Z,9.30
2019-05-17T05:55:43.324Z,9.30
2019-05-17T05:58:12.893Z,9.30
2019-05-17T06:00:42.938Z,9.30
2019-05-17T06:03:12.540Z,9.30
2019-05-17T06:05:42.499Z,9.40
2019-05-17T06:08:12.493Z,9.40
2019-05-17T06:10:42.528Z,9.40
2019-05-17T06:13:13.164Z,9.40
2019-05-17T06:15:43.204Z,9.30
2019-05-17T06:18:12.746Z,9.30
2019-05-17T06:20:42.185Z,9.30
2019-05-17T06:23:12.282Z,9.30
2019-05-17T06:25:43.642Z,9.20
2019-05-17T06:28:12.996Z,9.40
2019-05-17T06:30:43.225Z,9.40
2019-05-17T06:33:26.664Z,9.40
2019-05-17T06:35:43.821Z,9.50
2019-05-17T06:38:13.200Z,9.40
2019-05-17T06:40:42.521Z,9.30
2019-05-17T06:43:12.885Z,9.30
2019-05-17T06:45:42.725Z,9.30
2019-05-17T06:48:12.144Z,9.10
2019-05-17T06:50:43.067Z,9.20
2019-05-17T06:53:12.740Z,9.30
2019-05-17T06:55:42.699Z,9.30
2019-05-17T06:58:12.353Z,9.30
2019-05-17T07:00:41.727Z,9.40
2019-05-17T07:03:11.008Z,9.40
2019-05-17T07:05:41.994Z,9.30
2019-05-17T07:08:11.728Z,9.20
2019-05-17T07:10:41.036Z,9.20
2019-05-17T07:13:10.812Z,9.10
2019-05-17T07:15:47.337Z,9.10
2019-05-17T07:18:11.398Z,9.30
2019-05-17T07:20:40.707Z,9.30
2019-05-17T07:23:10.810Z,9.50
2019-05-17T07:25:40.440Z,9.30
2019-05-17T07:28:10.252Z,9.30
2019-05-17T07:30:40.249Z,9.40
2019-05-17T07:33:10.237Z,9.40
2019-05-17T07:35:39.984Z,9.20
2019-05-17T07:38:10.534Z,9.20
2019-05-17T07:40:40.252Z,9.30
2019-05-17T07:43:14.372Z,9.30
2019-05-17T07:45:40.766Z,9.40
2019-05-17T07:48:10.214Z,9.50
2019-05-17T07:50:39.978Z,9.50
2019-05-17T07:53:10.246Z,9.50
2019-05-17T07:55:40.214Z,9.40
2019-05-17T07:58:10.190Z,9.40
2019-05-17T08:00:40.211Z,9.40
2019-05-17T08:03:12.975Z,9.40
2019-05-17T08:05:40.862Z,9.50
2019-05-17T08:08:10.365Z,9.50
2019-05-17T08:10:40.979Z,9.40
2019-05-17T08:13:25.896Z,9.50
2019-05-17T08:15:42.162Z,9.50
2019-05-17T08:18:11.459Z,9.40
2019-05-17T08:20:40.763Z,9.40
2019-05-17T08:23:10.813Z,9.40
2019-05-17T08:25:52.439Z,9.40
2019-05-17T08:28:11.335Z,9.30
2019-05-17T08:30:41.206Z,9.40
2019-05-17T08:33:11.290Z,9.40
2019-05-17T08:35:40.719Z,9.40
2019-05-17T08:38:10.597Z,9.40
2019-05-17T08:40:40.747Z,9.40
2019-05-17T08:43:10.260Z,9.40
2019-05-17T08:45:40.661Z,9.40
2019-05-17T08:48:10.279Z,9.50
2019-05-17T08:50:40.398Z,9.50
2019-05-17T08:53:10.595Z,9.50
2019-05-17T08:55:41.021Z,9.60
2019-05-17T08:58:10.754Z,9.60
2019-05-17T09:00:40.814Z,9.70
2019-05-17T09:03:10.920Z,9.60
2019-05-17T09:05:41.754Z,9.50
2019-05-17T09:08:11.561Z,9.50
2019-05-17T09:10:41.180Z,9.50
2019-05-17T09:13:14.406Z,9.50
2019-05-17T09:15:41.669Z,9.40
2019-05-17T09:18:10.985Z,9.40
2019-05-17T09:20:40.866Z,9.50
2019-05-17T09:23:10.315Z,9.50
2019-05-17T09:25:39.977Z,9.60
2019-05-17T09:28:10.249Z,9.70
2019-05-17T09:30:40.423Z,9.80
2019-05-17T09:33:11.268Z,9.80
2019-05-17T09:35:41.292Z,9.80
2019-05-17T09:38:10.728Z,9.90
2019-05-17T09:40:40.469Z,10.10
2019-05-17T09:43:10.463Z,10.20
2019-05-17T09:45:40.594Z,10.10
2019-05-17T09:48:10.571Z,10.10
2019-05-17T09:50:40.230Z,10.00
2019-05-17T09:53:10.906Z,10.10
2019-05-17T09:55:40.463Z,10.20
2019-05-17T09:58:10.261Z,10.20
2019-05-17T10:00:39.563Z,10.30
2019-05-17T10:03:09.909Z,10.30
2019-05-17T10:05:40.593Z,10.30
2019-05-17T10:08:11.056Z,10.40
2019-05-17T10:10:40.553Z,10.40
2019-05-17T10:13:10.068Z,10.40
2019-05-17T10:15:40.861Z,10.40
2019-05-17T10:18:11.250Z,10.40
2019-05-17T10:20:41.016Z,10.40
2019-05-17T10:23:10.793Z,10.40
2019-05-17T10:25:40.459Z,10.50
2019-05-17T10:28:10.269Z,10.40
2019-05-17T10:30:40.127Z,10.50
2019-05-17T10:33:10.107Z,10.50
2019-05-17T10:35:40.734Z,10.60
2019-05-17T10:38:10.615Z,10.60
2019-05-17T10:40:41.023Z,10.60
2019-05-17T10:43:10.638Z,10.60
2019-05-17T10:45:40.328Z,10.60
2019-05-17T10:48:10.379Z,10.60
2019-05-17T10:50:40.729Z,10.70
2019-05-17T10:53:10.460Z,10.80
2019-05-17T10:55:39.970Z,10.90
2019-05-17T10:58:10.139Z,11.00
2019-05-17T11:00:41.367Z,11.20
2019-05-17T11:03:11.140Z,11.20
2019-05-17T11:05:40.576Z,11.10
2019-05-17T11:08:10.800Z,11.10
2019-05-17T11:10:41.960Z,11.30
2019-05-17T11:13:11.310Z,11.30
2019-05-17T11:15:40.692Z,11.20
2019-05-17T11:18:10.043Z,11.00
2019-05-17T11:20:39.341Z,11.20
2019-05-17T11:23:08.654Z,11.00
2019-05-17T11:25:45.082Z,11.00
2019-05-17T11:28:10.555Z,11.10
2019-05-17T11:30:39.883Z,11.20
2019-05-17T11:33:09.262Z,11.20
2019-05-17T11:35:38.545Z,11.30
2019-05-17T11:38:07.895Z,11.40
2019-05-17T11:40:37.136Z,11.60
2019-05-17T11:43:06.849Z,11.70
2019-05-17T11:45:36.206Z,11.80
2019-05-17T11:48:05.545Z,11.90
2019-05-17T11:50:34.875Z,11.80
2019-05-17T11:53:04.267Z,11.70
2019-05-17T11:55:33.734Z,11.70
2019-05-17T11:58:03.087Z,11.60
2019-05-17T12:00:32.539Z,11.70
2019-05-17T12:03:01.906Z,11.70
2019-05-17T12:05:31.373Z,11.80
2019-05-17T12:08:00.772Z,11.80
2019-05-17T12:10:30.174Z,11.80
2019-05-17T12:12:59.516Z,11.80
2019-05-17T12:15:43.561Z,11.90
2019-05-17T12:17:59.945Z,11.80
2019-05-17T12:20:29.268Z,11.80
2019-05-17T12:22:58.671Z,11.80
2019-05-17T12:25:28.048Z,11.70
2019-05-17T12:27:57.344Z,11.60
2019-05-17T12:30:26.734Z,11.50
2019-05-17T12:32:56.713Z,11.60
2019-05-17T12:35:26.096Z,11.60
2019-05-17T12:37:55.383Z,11.50
2019-05-17T12:40:25.033Z,11.70
2019-05-17T12:42:54.351Z,12.00
2019-05-17T12:45:23.680Z,12.10
2019-05-17T12:47:53.028Z,12.10
2019-05-17T12:50:22.529Z,12.10
2019-05-17T12:52:51.825Z,12.30
2019-05-17T12:55:21.245Z,12.30
2019-05-17T12:57:50.664Z,12.50
2019-05-17T13:00:20.306Z,12.20
2019-05-17T13:02:49.638Z,12.10
2019-05-17T13:05:19.021Z,12.10
2019-05-17T13:07:48.352Z,12.10
2019-05-17T13:10:17.688Z,12.10
2019-05-17T13:12:46.980Z,12.10
2019-05-17T13:15:17.548Z,12.20
2019-05-17T13:17:49.414Z,12.30
2019-05-17T13:20:18.905Z,12.30
2019-05-17T13:22:48.446Z,12.60
2019-05-17T13:25:19.547Z,12.50
2019-05-17T13:27:48.883Z,12.60
2019-05-17T13:30:18.801Z,12.60
2019-05-17T13:32:48.190Z,12.80
2019-05-17T13:35:17.806Z,12.90
2019-05-17T13:37:47.495Z,13.10
2019-05-17T13:40:17.279Z,13.10
2019-05-17T13:42:46.601Z,13.30
2019-05-17T13:45:17.318Z,13.20
2019-05-17T13:47:46.638Z,13.20
2019-05-17T13:50:16.168Z,13.20
2019-05-17T13:52:45.457Z,13.20
2019-05-17T13:55:14.770Z,13.10
2019-05-17T13:57:44.174Z,13.20
2019-05-17T14:00:18.696Z,13.10
2019-05-17T14:02:48.079Z,13.10
2019-05-17T14:05:17.521Z,13.00
2019-05-17T14:07:46.830Z,12.90
2019-05-17T14:10:26.710Z,13.00
2019-05-17T14:12:47.354Z,13.10
2019-05-17T14:15:17.417Z,13.20
2019-05-17T14:17:46.757Z,13.10
2019-05-17T14:20:16.534Z,13.10
2019-05-17T14:22:46.179Z,13.10
2019-05-17T14:25:16.252Z,12.90
2019-05-17T14:27:48.711Z,13.00
2019-05-17T14:30:18.608Z,13.00
2019-05-17T14:32:47.932Z,13.00
2019-05-17T14:35:17.600Z,12.90
2019-05-17T14:37:46.899Z,12.90
2019-05-17T14:40:17.774Z,12.90
2019-05-17T14:42:47.072Z,12.90
2019-05-17T14:45:16.564Z,12.90
2019-05-17T14:47:45.974Z,12.90
2019-05-17T14:50:15.609Z,12.90
2019-05-17T14:52:44.911Z,13.00
2019-05-17T14:55:14.348Z,13.00
2019-05-17T14:57:43.831Z,13.10
2019-05-17T15:00:13.681Z,13.10
2019-05-17T15:02:42.956Z,13.10
2019-05-17T15:05:14.488Z,13.10
2019-05-17T15:07:43.896Z,13.00
2019-05-17T15:10:14.054Z,13.10
2019-05-17T15:12:43.432Z,13.10
2019-05-17T15:15:13.056Z,13.20
2019-05-17T15:17:42.426Z,13.20
2019-05-17T15:20:11.999Z,13.30
2019-05-17T15:22:41.332Z,13.40
2019-05-17T15:25:11.230Z,13.30
2019-05-17T15:27:40.528Z,13.20
2019-05-17T15:30:10.144Z,13.10
2019-05-17T15:32:39.438Z,13.30
2019-05-17T15:35:09.053Z,13.20
2019-05-17T15:37:38.379Z,13.20
2019-05-17T15:40:07.922Z,13.20
2019-05-17T15:42:44.404Z,13.20
2019-05-17T15:45:08.592Z,13.20
2019-05-17T15:47:37.935Z,13.10
2019-05-17T15:50:08.793Z,13.20
2019-05-17T15:52:38.175Z,13.20
2019-05-17T15:55:07.595Z,13.20
2019-05-17T15:57:36.961Z,13.20
2019-05-17T16:00:06.708Z,13.20
2019-05-17T16:02:36.139Z,13.10
2019-05-17T16:05:06.350Z,13.00
2019-05-17T16:07:35.956Z,13.10
2019-05-17T16:10:06.133Z,13.00
2019-05-17T16:12:35.441Z,13.10
2019-05-17T16:15:05.568Z,13.10
2019-05-17T16:17:34.945Z,13.20
2019-05-17T16:20:04.384Z,13.10
2019-05-17T16:22:34.102Z,13.10
2019-05-17T16:25:03.373Z,13.10
2019-05-17T16:27:32.704Z,13.10
2019-05-17T16:30:02.017Z,13.00
2019-05-17T16:32:31.317Z,13.10
2019-05-17T16:35:00.640Z,13.00
2019-05-17T16:37:29.928Z,13.10
2019-05-17T16:39:59.561Z,13.20
2019-05-17T16:42:28.846Z,13.20
2019-05-17T16:44:58.333Z,13.30
2019-05-17T16:47:28.102Z,13.20
2019-05-17T16:49:57.896Z,13.20
2019-05-17T16:52:27.254Z,13.20
2019-05-17T16:54:56.592Z,13.20
2019-05-17T16:57:25.893Z,13.20
2019-05-17T17:00:04.840Z,13.20
2019-05-17T17:02:37.299Z,13.10
2019-05-17T17:05:07.044Z,13.20
2019-05-17T17:07:39.201Z,13.10
2019-05-17T17:10:12.895Z,13.20
2019-05-17T17:12:45.396Z,13.20
2019-05-17T17:15:15.088Z,13.20
2019-05-17T17:17:44.401Z,13.20
2019-05-17T17:20:14.625Z,13.30
2019-05-17T17:22:44.318Z,13.30
2019-05-17T17:25:13.759Z,13.20
2019-05-17T17:27:43.077Z,13.30
2019-05-17T17:30:13.135Z,13.20
2019-05-17T17:32:42.461Z,13.20
2019-05-17T17:35:12.109Z,13.20
2019-05-17T17:37:41.388Z,13.20
2019-05-17T17:40:10.822Z,13.20
2019-05-17T17:42:40.473Z,13.20
2019-05-17T17:45:17.001Z,13.20
2019-05-17T17:47:46.440Z,13.20
2019-05-17T17:50:16.354Z,13.20
2019-05-17T17:52:49.262Z,13.20
2019-05-17T17:55:18.551Z,13.20
2019-05-17T17:57:48.031Z,13.20
2019-05-17T18:00:20.137Z,13.20
2019-05-17T18:02:49.590Z,13.20
2019-05-17T18:05:18.910Z,13.20
2019-05-17T18:07:48.310Z,13.10
2019-05-17T18:10:33.622Z,13.10
2019-05-17T18:13:02.908Z,13.10
2019-05-17T18:15:37.573Z,13.10
2019-05-17T18:18:06.889Z,13.10
2019-05-17T18:20:36.459Z,13.00
2019-05-17T18:23:06.490Z,13.00
2019-05-17T18:25:36.130Z,12.90
2019-05-17T18:28:06.657Z,12.90
2019-05-17T18:30:39.946Z,12.90
2019-05-17T18:33:09.233Z,12.90
2019-05-17T18:35:38.533Z,12.70
2019-05-17T18:38:07.943Z,12.80
2019-05-17T18:40:40.001Z,12.80
2019-05-17T18:43:09.358Z,12.70
2019-05-17T18:45:38.748Z,12.70
2019-05-17T18:48:08.061Z,12.80
2019-05-17T18:50:37.546Z,12.90
2019-05-17T18:53:13.183Z,12.80
2019-05-17T18:55:38.203Z,12.70
2019-05-17T18:58:07.622Z,12.70
2019-05-17T19:00:36.953Z,12.60
2019-05-17T19:03:06.356Z,12.60
2019-05-17T19:05:35.630Z,12.60
2019-05-17T19:08:05.253Z,12.60
2019-05-17T19:10:34.681Z,12.60
2019-05-17T19:13:04.260Z,12.50
2019-05-17T19:15:33.573Z,12.40
2019-05-17T19:18:02.908Z,12.40
2019-05-17T19:20:32.396Z,12.40
2019-05-17T19:23:01.870Z,12.40
2019-05-17T19:25:31.280Z,12.40
2019-05-17T19:28:01.171Z,12.40
2019-05-17T19:30:30.493Z,12.40
2019-05-17T19:33:00.160Z,12.30
2019-05-17T19:35:29.555Z,12.30
2019-05-17T19:37:58.953Z,12.30
2019-05-17T19:40:28.285Z,12.40
2019-05-17T19:42:57.668Z,12.40
2019-05-17T19:45:26.955Z,12.40
2019-05-17T19:47:56.600Z,12.40
2019-05-17T19:50:26.289Z,12.40
2019-05-17T19:52:55.652Z,12.40
2019-05-17T19:55:25.810Z,12.30
2019-05-17T19:57:55.160Z,12.30
2019-05-17T20:00:24.680Z,12.30
2019-05-17T20:02:53.999Z,12.30
2019-05-17T20:05:23.372Z,12.30
2019-05-17T20:07:52.713Z,12.30
2019-05-17T20:10:22.700Z,12.30
2019-05-17T20:12:52.075Z,12.30
2019-05-17T20:15:33.498Z,12.30
2019-05-17T20:17:52.793Z,12.30
2019-05-17T20:20:22.105Z,12.30
2019-05-17T20:22:51.404Z,12.30
2019-05-17T20:25:20.998Z,12.30
2019-05-17T20:27:50.305Z,12.40
2019-05-17T20:30:20.201Z,12.30
2019-05-17T20:32:49.512Z,12.40
2019-05-17T20:35:19.371Z,12.40
2019-05-17T20:37:49.314Z,12.30
2019-05-17T20:40:18.792Z,12.40
2019-05-17T20:42:48.262Z,12.40
2019-05-17T20:45:32.058Z,12.40
2019-05-17T20:47:49.725Z,12.40
2019-05-17T20:50:19.240Z,12.40
2019-05-17T20:52:48.624Z,12.30
2019-05-17T20:55:17.913Z,12.30
2019-05-17T20:57:47.665Z,12.30
2019-05-17T21:00:17.313Z,12.30
2019-05-17T21:02:46.773Z,12.20
2019-05-17T21:05:17.771Z,12.20
2019-05-17T21:07:47.633Z,12.30
2019-05-17T21:10:17.048Z,12.10
2019-05-17T21:12:46.343Z,12.20
2019-05-17T21:15:15.648Z,12.10
2019-05-17T21:17:45.024Z,12.20
2019-05-17T21:20:16.385Z,12.20
2019-05-17T21:22:45.805Z,12.20
2019-05-17T21:25:15.242Z,12.20
2019-05-17T21:27:44.926Z,12.10
2019-05-17T21:30:15.348Z,12.10
2019-05-17T21:32:44.653Z,12.20
2019-05-17T21:35:33.897Z,12.20
2019-05-17T21:38:03.177Z,12.10
2019-05-17T21:40:32.517Z,12.10
2019-05-17T21:43:01.875Z,12.20
2019-05-17T21:45:31.153Z,12.20
2019-05-17T21:48:00.470Z,12.10
2019-05-17T21:50:29.783Z,12.10
2019-05-17T21:52:59.100Z,12.10
2019-05-17T21:55:28.720Z,12.10
2019-05-17T21:57:58.088Z,12.20
2019-05-17T22:01:21.242Z,12.20
2019-05-17T22:03:50.545Z,12.20
2019-05-17T22:06:19.937Z,12.20
2019-05-17T22:08:49.458Z,12.10
2019-05-17T22:11:18.840Z,12.10
2019-05-17T22:13:48.212Z,12.10
2019-05-17T22:16:20.061Z,12.10
2019-05-17T22:18:48.849Z,12.10
2019-05-17T22:21:18.183Z,12.10
2019-05-17T22:23:47.463Z,12.10
2019-05-17T22:26:17.065Z,12.10
2019-05-17T22:28:46.397Z,12.10
2019-05-17T22:31:15.699Z,12.10
2019-05-17T22:33:45.416Z,12.10
2019-05-17T22:36:14.728Z,12.10
2019-05-17T22:38:44.093Z,12.10
2019-05-17T22:41:13.797Z,12.10
2019-05-17T22:43:42.992Z,12.10
2019-05-17T22:46:12.383Z,12.10
2019-05-17T22:48:41.680Z,12.10
2019-05-17T22:51:10.958Z,12.10
2019-05-17T22:53:40.281Z,12.10
2019-05-17T22:56:09.592Z,12.10
2019-05-17T22:58:38.906Z,12.10
2019-05-17T23:01:08.704Z,12.10
2019-05-17T23:03:38.000Z,12.00
2019-05-17T23:06:07.348Z,12.00
2019-05-17T23:08:36.690Z,12.10
2019-05-17T23:11:05.963Z,12.00
2019-05-17T23:13:35.326Z,12.00
2019-05-17T23:16:07.020Z,12.00
2019-05-17T23:18:36.437Z,12.00
2019-05-17T23:21:05.854Z,11.80
2019-05-17T23:23:35.181Z,11.80
2019-05-17T23:26:04.463Z,11.80
2019-05-17T23:28:33.789Z,11.80
2019-05-17T23:31:03.568Z,11.80
2019-05-17T23:33:32.885Z,11.80
2019-05-17T23:36:02.247Z,11.80
2019-05-17T23:38:31.551Z,11.80
2019-05-17T23:41:01.297Z,11.90
2019-05-17T23:43:31.505Z,11.90
2019-05-17T23:46:00.805Z,11.90
2019-05-17T23:48:30.117Z,11.90
2019-05-17T23:50:59.433Z,11.90
2019-05-17T23:53:28.811Z,11.80
2019-05-17T23:55:58.067Z,11.80
2019-05-17T23:58:27.456Z,11.80
